Vores vejrinfo findes også på:

UK Metoffice

European Weather Network

Weather Underground



Stationer ""tæt på"" METAR Rapporter

   
EKEB - Esbjerg, Denmark
Afstand fra denne vejrstation: NNV 29 km
Opdateret: 03-04-2020 09:50
Delvis overskyet  
Delvis overskyet  
   Vind fra: VNV 7.7 m/s
Vind fra: VNV 7.7 m/s
Temperatur: 6°C
Chill faktor: 2°C
Dugpunkt: 0°C
Luftfugtighed: 66%
Barometer: 1007 hPa
Skyer: Delvis overskyet
Sigtbarhed: More than 10 km
Sky detaljer: Delvis overskyet 5000 ft
EKEB 030750Z AUTO 30015KT 9999 SCT050/// 06/M00 Q1007
EKSP - Skrydstrup(Dan-A, Denmark
Afstand fra denne vejrstation: Ø 35 km
Opdateret: 03-04-2020 09:50
Delvis overskyet  
Delvis overskyet  
   Vind fra: Vest 8.7 m/s
Vind fra: Vest 8.7 m/s
Temperatur: 5°C
Chill faktor: 0°C
Dugpunkt: -2°C
Luftfugtighed: 61%
Barometer: 1007 hPa
Skyer: Delvis overskyet
Sigtbarhed: More than 10 km
Sky detaljer: Få skyer 4700 ft,
Delvis overskyet 6000 ft
EKSP 030750Z 28017KT 9999 FEW047 SCT060 05/M02 Q1007
EKBI - Billund Airport, Denmark
Afstand fra denne vejrstation: NNØ 56 km
Opdateret: 03-04-2020 09:50
Mest overskyet  
Mest overskyet  
   Vind fra: VNV 6.7 m/s<br />Gust to 6.7 m/s
Vind fra: VNV 6.7 m/s
Gust to 6.7 m/s
Temperatur: 4°C
Chill faktor: -1°C
Dugpunkt: -1°C
Luftfugtighed: 70%
Barometer: 1006 hPa
Skyer: Mest overskyet
Sigtbarhed: More than 10 km
Sky detaljer: Mest overskyet 3300 ft
EKBI 030750Z AUTO 30013G25KT 9999 BKN033/// 04/M01 Q1006
EKSB - Sonderborg Airpo, Denmark
Afstand fra denne vejrstation: ØSØ 76 km
Opdateret: 03-04-2020 09:50
Nearby Showers, Delvis overskyet  
Nearby Showers, Delvis overskyet  
   Vind fra: Vest 5.1 m/s
Vind fra: Vest 5.1 m/s
Temperatur: 5°C
Chill faktor: 1°C
Dugpunkt: 1°C
Luftfugtighed: 76%
Barometer: 1007 hPa
Skyer: Delvis overskyet
Sigtbarhed: More than 10 km
Sky detaljer: Få skyer 1800 ft,
Delvis overskyet 4000 ft
EKSB 030750Z 27010KT 210V320 9999 VCSH FEW018 SCT040 05/01 Q1007
EKVD - Vamdrup (aut/man), Denmark
Afstand fra denne vejrstation: ØNØ 41 km
Opdateret: 03-04-2020 09:50
Mest overskyet  
Mest overskyet  
   Vind fra: Vest 9.8 m/s
Vind fra: Vest 9.8 m/s
Temperatur: 5°C
Chill faktor: -1°C
Dugpunkt: -1°C
Luftfugtighed: 66%
Barometer: 1006 hPa
Skyer: Mest overskyet
Sigtbarhed: More than 10 km
Sky detaljer: Mest overskyet 3000 ft
EKVD 030750Z 28019KT 240V310 9999 BKN030 05/M01 Q1006
EDXW - Westerland/Sylt, Germany
Afstand fra denne vejrstation: SSV 47 km
Opdateret: 22-03-2020 16:20
Data er IKKE opdaterede!
Klart  
Klart  
   Vind fra: ØSØ 7.7 m/s
Vind fra: ØSØ 7.7 m/s
Temperatur: 6°C
Chill faktor: 2°C
Dugpunkt: -5°C
Luftfugtighed: 46%
Barometer: 1037 hPa
Sigtbarhed: More than 10 km
Sky detaljer: Klart
EDXW 221520Z 11015KT CAVOK 06/M05 Q1037

Original script by  Saratoga-weather.org Adapted for the template by  Weerstation Leuven

Der anvendes følgende:

Vejrstation
Davis VP2

Vejrprogram
Meteohub

Server
RaspberryPI 3 model B

Davis VP2

Meteohub

RaspberryPI 3 model B